Time;durP1;ratioP1;P1;durP2;ratioP2;P2;SDS_P1;SDS_P2;PMS_P1;PMS_P2;Temp;Humidity;BMP_temperature;BMP_pressure;BME280_temperature;BME280_humidity;BME280_pressure;Samples;Min_cycle;Max_cycle;Signal;HPM_P1;HPM_P2
2023/09/20 00:00:11;;;;;;;1.60;1.13;;;22.20;62.60;;;;;;4985748;28;20442;-51
2023/09/20 00:02:41;;;;;;;1.77;0.90;;;22.20;62.50;;;;;;4981274;28;20549;-52
2023/09/20 00:05:14;;;;;;;1.83;1.20;;;22.20;62.60;;;;;;4975453;28;20445;-51
2023/09/20 00:07:43;;;;;;;2.43;1.20;;;22.20;62.50;;;;;;4987585;28;20840;-51
2023/09/20 00:10:14;;;;;;;3.40;1.47;;;22.20;62.70;;;;;;4988175;28;20474;-51
2023/09/20 00:12:44;;;;;;;1.97;1.10;;;22.20;62.70;;;;;;4987615;28;20564;-51
2023/09/20 00:15:12;;;;;;;1.57;1.10;;;22.20;62.70;;;;;;4983616;28;20796;-51
2023/09/20 00:17:42;;;;;;;3.20;1.50;;;22.20;62.70;;;;;;4993795;28;20989;-51
2023/09/20 00:20:14;;;;;;;1.73;1.40;;;22.20;62.90;;;;;;5003988;28;20444;-51
2023/09/20 00:22:43;;;;;;;1.00;0.80;;;22.20;62.80;;;;;;5007089;28;20615;-52
2023/09/20 00:25:13;;;;;;;3.90;1.30;;;22.20;62.90;;;;;;4996314;28;20459;-50
2023/09/20 00:27:45;;;;;;;1.33;1.20;;;22.20;63.00;;;;;;5004819;28;20493;-53
2023/09/20 00:30:17;;;;;;;1.70;1.10;;;22.20;62.90;;;;;;5008731;28;20552;-50
2023/09/20 00:32:48;;;;;;;1.87;1.60;;;22.20;63.10;;;;;;5000014;28;20990;-51
2023/09/20 00:35:18;;;;;;;1.60;1.30;;;22.20;62.60;;;;;;4998217;28;20821;-51
2023/09/20 00:37:49;;;;;;;1.57;1.07;;;22.10;62.80;;;;;;5007285;28;20575;-49
2023/09/20 00:40:21;;;;;;;3.07;1.47;;;22.20;63.10;;;;;;4991414;28;20429;-50
2023/09/20 00:42:50;;;;;;;1.83;1.10;;;22.20;63.00;;;;;;4998842;28;20480;-50
2023/09/20 00:45:19;;;;;;;3.23;1.47;;;22.20;62.80;;;;;;4987971;28;20437;-50
2023/09/20 00:47:55;;;;;;;1.73;1.23;;;22.20;62.80;;;;;;4979321;28;20478;-50
2023/09/20 00:50:26;;;;;;;2.30;1.50;;;22.20;63.00;;;;;;4985825;28;20568;-50
2023/09/20 00:52:57;;;;;;;2.37;1.60;;;22.20;63.10;;;;;;4983818;28;20724;-50
2023/09/20 00:55:28;;;;;;;2.37;1.40;;;22.20;63.00;;;;;;4971822;28;20532;-51
2023/09/20 00:58:03;;;;;;;1.83;1.40;;;22.20;63.10;;;;;;4986925;28;20481;-51
2023/09/20 01:00:33;;;;;;;2.30;1.23;;;22.10;62.80;;;;;;4986427;28;20444;-50
2023/09/20 01:03:03;;;;;;;3.30;1.40;;;22.10;62.90;;;;;;4984219;28;20470;-50
2023/09/20 01:05:36;;;;;;;3.07;1.20;;;22.10;63.10;;;;;;4978697;28;20749;-50
2023/09/20 01:08:06;;;;;;;2.87;1.17;;;22.10;64.40;;;;;;4978858;28;20488;-50
2023/09/20 01:10:36;;;;;;;1.20;1.10;;;22.10;63.20;;;;;;4987827;28;20874;-50
2023/09/20 01:13:06;;;;;;;1.60;1.20;;;22.10;63.30;;;;;;4981406;28;20656;-51
2023/09/20 01:15:37;;;;;;;1.90;1.30;;;22.10;63.20;;;;;;4973608;28;20454;-51
2023/09/20 01:18:08;;;;;;;1.40;1.20;;;22.10;63.20;;;;;;4986382;28;21085;-51
2023/09/20 01:20:39;;;;;;;1.87;1.20;;;22.20;63.40;;;;;;4977292;28;20451;-51
2023/09/20 01:23:10;;;;;;;2.17;1.40;;;22.10;63.40;;;;;;4981247;28;21062;-49
2023/09/20 01:25:42;;;;;;;1.47;1.37;;;22.10;63.30;;;;;;4985770;28;20441;-50
2023/09/20 01:28:12;;;;;;;3.33;1.60;;;22.10;63.30;;;;;;4988528;28;20474;-51
2023/09/20 01:30:41;;;;;;;2.47;1.50;;;22.10;63.30;;;;;;4983597;28;20860;-50
2023/09/20 01:33:12;;;;;;;1.77;1.10;;;22.10;63.20;;;;;;4979496;28;20473;-50
2023/09/20 01:35:43;;;;;;;1.30;1.20;;;22.10;63.20;;;;;;4983073;28;20452;-50
2023/09/20 01:38:13;;;;;;;4.10;1.37;;;22.10;63.10;;;;;;4991575;28;20480;-50
2023/09/20 01:40:41;;;;;;;1.50;1.10;;;22.10;63.30;;;;;;4988778;28;20542;-50
2023/09/20 01:43:11;;;;;;;1.33;1.23;;;22.10;63.50;;;;;;4985317;28;20985;-49
2023/09/20 01:45:42;;;;;;;2.10;1.50;;;22.10;63.40;;;;;;4988620;28;20441;-49
2023/09/20 01:48:11;;;;;;;1.43;1.20;;;22.10;63.40;;;;;;4995363;28;21009;-49
2023/09/20 01:50:41;;;;;;;2.30;1.40;;;22.10;63.30;;;;;;5007523;28;20757;-50
2023/09/20 01:53:11;;;;;;;2.80;1.77;;;22.10;63.30;;;;;;5007519;28;20555;-50
2023/09/20 01:55:42;;;;;;;2.90;1.30;;;22.10;63.30;;;;;;5011081;28;20447;-50
2023/09/20 01:58:12;;;;;;;1.20;1.00;;;22.10;63.50;;;;;;5004892;28;20844;-50
2023/09/20 02:00:42;;;;;;;2.60;1.53;;;22.10;63.30;;;;;;5017590;28;20868;-51
2023/09/20 02:03:14;;;;;;;2.23;1.30;;;22.10;63.30;;;;;;4999768;28;20934;-49
2023/09/20 02:05:44;;;;;;;1.73;1.10;;;22.10;63.30;;;;;;4988213;28;20453;-50
2023/09/20 02:08:12;;;;;;;1.67;1.30;;;22.10;63.30;;;;;;4986471;28;20465;-50
2023/09/20 02:10:42;;;;;;;1.40;1.23;;;22.10;63.50;;;;;;4990085;28;20474;-49
2023/09/20 02:13:13;;;;;;;1.67;1.07;;;22.10;63.50;;;;;;4988671;28;20473;-49
2023/09/20 02:15:41;;;;;;;4.10;1.23;;;22.10;63.60;;;;;;4998524;28;20446;-49
2023/09/20 02:18:10;;;;;;;2.70;1.50;;;22.10;63.70;;;;;;4988498;28;20523;-50
2023/09/20 02:20:38;;;;;;;1.57;1.10;;;22.10;63.60;;;;;;4988752;28;20453;-49
2023/09/20 02:23:12;;;;;;;1.30;1.10;;;22.10;63.60;;;;;;4989825;28;20482;-50
2023/09/20 02:25:42;;;;;;;2.57;1.47;;;22.10;63.70;;;;;;4989121;28;20938;-49
2023/09/20 02:28:11;;;;;;;1.57;1.23;;;22.10;63.80;;;;;;4987729;28;20990;-49
2023/09/20 02:30:41;;;;;;;1.80;1.37;;;22.10;63.70;;;;;;4991325;28;20470;-49
2023/09/20 02:33:14;;;;;;;2.20;1.50;;;22.10;63.60;;;;;;4994377;28;20468;-50
2023/09/20 02:35:45;;;;;;;1.40;1.10;;;22.00;63.60;;;;;;4994700;28;20458;-50
2023/09/20 02:38:13;;;;;;;1.97;1.20;;;22.10;63.90;;;;;;4999558;28;20516;-50
2023/09/20 02:40:46;;;;;;;1.63;1.13;;;22.10;63.60;;;;;;5002979;28;20441;-50
2023/09/20 02:43:16;;;;;;;2.23;1.03;;;22.10;63.80;;;;;;4997505;28;20486;-50
2023/09/20 02:45:46;;;;;;;2.20;1.23;;;22.00;63.70;;;;;;5006223;28;20442;-50
2023/09/20 02:48:14;;;;;;;1.90;1.10;;;22.10;63.80;;;;;;5009911;28;20464;-51
2023/09/20 02:50:44;;;;;;;1.93;1.03;;;22.00;63.80;;;;;;4992768;28;20465;-50
2023/09/20 02:53:14;;;;;;;2.50;1.30;;;22.10;63.90;;;;;;4996213;28;20473;-50
2023/09/20 02:55:45;;;;;;;1.20;0.97;;;22.10;64.00;;;;;;4988741;28;20435;-50
2023/09/20 02:58:13;;;;;;;1.53;1.10;;;22.10;64.00;;;;;;4983163;28;20909;-50
2023/09/20 03:00:46;;;;;;;2.17;1.30;;;22.00;63.90;;;;;;4970738;28;20445;-50
2023/09/20 03:03:18;;;;;;;1.73;1.60;;;22.00;64.00;;;;;;4986764;28;20484;-50
2023/09/20 03:05:46;;;;;;;4.60;1.40;;;22.10;64.00;;;;;;4985549;28;20454;-50
2023/09/20 03:08:14;;;;;;;1.73;1.20;;;22.10;64.00;;;;;;4981882;28;20465;-50
2023/09/20 03:10:46;;;;;;;1.70;1.17;;;22.00;63.90;;;;;;5008006;28;20880;-50
2023/09/20 03:13:16;;;;;;;2.00;0.97;;;22.10;64.00;;;;;;5001313;28;20848;-49
2023/09/20 03:15:51;;;;;;;1.97;1.77;;;22.00;63.90;;;;;;5000397;28;20473;-50
2023/09/20 03:18:23;;;;;;;1.33;1.07;;;22.00;63.90;;;;;;5002112;28;21013;-50
2023/09/20 03:21:05;;;;;;;2.20;1.00;;;22.00;63.90;;;;;;4997779;28;20449;-50
2023/09/20 03:23:37;;;;;;;1.57;0.90;;;22.00;64.00;;;;;;5008252;28;20464;-49
2023/09/20 03:26:08;;;;;;;1.07;0.80;;;22.00;64.00;;;;;;4991424;28;20776;-49
2023/09/20 03:28:37;;;;;;;1.20;1.00;;;22.00;64.00;;;;;;4988246;28;21003;-49
2023/09/20 03:31:10;;;;;;;3.53;1.20;;;22.00;64.10;;;;;;5009358;28;20476;-50
2023/09/20 03:33:42;;;;;;;1.13;0.90;;;22.00;64.00;;;;;;4994425;28;20831;-50
2023/09/20 03:36:17;;;;;;;1.20;0.77;;;22.00;64.20;;;;;;4981538;28;20515;-50
2023/09/20 03:38:48;;;;;;;2.20;1.10;;;22.00;64.10;;;;;;4987855;28;20528;-50
2023/09/20 03:41:18;;;;;;;1.70;1.50;;;22.00;64.20;;;;;;4961616;28;20439;-50
2023/09/20 03:43:47;;;;;;;1.70;1.20;;;22.00;64.30;;;;;;4984652;28;20485;-49
2023/09/20 03:46:16;;;;;;;1.10;0.90;;;21.90;64.30;;;;;;4970945;28;20444;-49
2023/09/20 03:48:46;;;;;;;2.27;1.10;;;22.00;64.30;;;;;;4987012;28;20465;-49
2023/09/20 03:51:15;;;;;;;1.03;0.80;;;22.00;64.30;;;;;;4985782;28;20853;-49
2023/09/20 03:53:44;;;;;;;1.67;1.17;;;22.00;64.40;;;;;;4988112;28;20478;-49
2023/09/20 03:56:14;;;;;;;1.50;1.27;;;22.00;64.30;;;;;;4968546;28;20856;-49
2023/09/20 03:58:45;;;;;;;2.00;1.33;;;22.00;64.20;;;;;;4980699;28;22776;-49
2023/09/20 04:01:13;;;;;;;1.53;1.00;;;21.90;64.20;;;;;;4987134;28;20505;-49
2023/09/20 04:03:42;;;;;;;1.67;1.03;;;22.00;64.30;;;;;;4985904;28;20506;-49
2023/09/20 04:06:11;;;;;;;1.50;1.30;;;22.00;64.30;;;;;;4984313;28;20464;-49
2023/09/20 04:08:39;;;;;;;2.10;1.20;;;21.90;64.10;;;;;;4970706;28;20458;-50
2023/09/20 04:11:11;;;;;;;1.67;1.27;;;21.90;64.30;;;;;;4971748;28;20905;-49
2023/09/20 04:13:40;;;;;;;1.80;1.37;;;21.90;64.40;;;;;;4985890;28;20855;-50
2023/09/20 04:16:10;;;;;;;2.07;1.10;;;21.90;64.00;;;;;;4972998;28;20433;-49
2023/09/20 04:18:38;;;;;;;1.93;1.20;;;21.90;64.30;;;;;;4979779;28;20484;-50
2023/09/20 04:21:08;;;;;;;1.30;0.90;;;21.90;64.40;;;;;;4970413;28;20451;-49
2023/09/20 04:23:37;;;;;;;1.60;0.93;;;21.90;64.30;;;;;;4984782;28;20477;-49
2023/09/20 04:26:05;;;;;;;1.40;0.90;;;21.90;64.20;;;;;;4981822;28;20524;-49
2023/09/20 04:28:33;;;;;;;2.60;1.30;;;21.90;64.30;;;;;;4980249;28;20489;-50
2023/09/20 04:31:02;;;;;;;2.13;0.90;;;21.90;64.20;;;;;;4988322;28;20581;-50
2023/09/20 04:33:33;;;;;;;1.70;1.23;;;21.90;64.30;;;;;;4987837;28;20564;-50
2023/09/20 04:36:04;;;;;;;1.40;0.80;;;21.90;64.20;;;;;;4967653;28;20450;-50
2023/09/20 04:38:33;;;;;;;2.50;1.27;;;21.90;64.20;;;;;;4984420;28;20493;-50
2023/09/20 04:41:01;;;;;;;1.50;1.13;;;21.90;65.60;;;;;;5003749;28;20453;-50
2023/09/20 04:43:30;;;;;;;2.10;1.03;;;21.90;64.30;;;;;;4987303;28;20481;-50
2023/09/20 04:46:03;;;;;;;1.00;0.80;;;21.90;64.30;;;;;;4983793;28;21042;-50
2023/09/20 04:48:34;;;;;;;1.43;1.10;;;21.90;64.40;;;;;;4970830;28;20912;-49
2023/09/20 04:51:04;;;;;;;0.87;0.70;;;21.90;64.30;;;;;;4969803;28;20477;-49
2023/09/20 04:53:34;;;;;;;3.00;1.40;;;21.90;64.30;;;;;;4987963;28;20478;-50
2023/09/20 04:56:03;;;;;;;2.07;1.23;;;21.90;64.50;;;;;;4989161;28;20432;-50
2023/09/20 04:58:31;;;;;;;1.60;1.20;;;21.80;64.50;;;;;;4988701;28;20477;-50
2023/09/20 05:00:59;;;;;;;1.33;1.07;;;21.90;64.50;;;;;;4986125;28;20481;-50
2023/09/20 05:03:29;;;;;;;2.03;1.10;;;21.80;64.50;;;;;;4989214;28;20465;-49
2023/09/20 05:05:59;;;;;;;1.10;0.93;;;21.90;64.50;;;;;;4986818;28;20452;-49
2023/09/20 05:08:27;;;;;;;1.30;1.10;;;21.90;64.50;;;;;;4990391;28;20572;-50
2023/09/20 05:10:55;;;;;;;1.70;1.20;;;21.90;64.60;;;;;;4972991;28;20495;-49
2023/09/20 05:13:24;;;;;;;1.60;1.10;;;21.90;64.40;;;;;;4988134;28;21015;-50
2023/09/20 05:15:52;;;;;;;1.80;1.43;;;21.90;64.60;;;;;;4974331;28;20536;-49
2023/09/20 05:18:21;;;;;;;1.63;1.10;;;21.80;64.50;;;;;;4989842;28;20462;-49
2023/09/20 05:20:49;;;;;;;1.27;1.00;;;21.80;64.30;;;;;;4987416;28;20449;-50
2023/09/20 05:23:19;;;;;;;1.57;1.00;;;21.80;64.50;;;;;;4987885;28;20484;-49
2023/09/20 05:25:48;;;;;;;1.80;1.20;;;21.80;64.50;;;;;;4972098;28;20445;-50
2023/09/20 05:28:16;;;;;;;3.23;1.00;;;21.80;64.60;;;;;;4989727;28;20481;-49
2023/09/20 05:30:45;;;;;;;1.50;1.20;;;21.80;64.40;;;;;;4991381;28;20534;-50
2023/09/20 05:33:17;;;;;;;1.83;1.03;;;21.80;64.60;;;;;;4984845;28;20462;-49
2023/09/20 05:35:47;;;;;;;2.10;1.40;;;21.80;64.50;;;;;;4986913;28;20807;-50
2023/09/20 05:38:17;;;;;;;1.70;1.03;;;21.80;64.50;;;;;;4984444;28;20499;-49
2023/09/20 05:40:47;;;;;;;2.50;1.30;;;21.80;64.60;;;;;;4985327;28;20438;-49
2023/09/20 05:43:18;;;;;;;1.40;1.00;;;21.80;64.70;;;;;;4987763;28;20547;-50
2023/09/20 05:45:46;;;;;;;1.67;1.30;;;21.80;64.60;;;;;;4986137;28;20453;-49
2023/09/20 05:48:14;;;;;;;1.77;1.00;;;21.80;64.70;;;;;;4988709;28;20485;-50
2023/09/20 05:50:43;;;;;;;1.87;1.20;;;21.80;64.60;;;;;;4988498;28;20441;-50
2023/09/20 05:53:12;;;;;;;2.40;1.20;;;21.80;64.60;;;;;;4990268;28;20497;-50
2023/09/20 05:55:43;;;;;;;2.70;1.33;;;21.80;64.50;;;;;;4991702;28;20438;-49
2023/09/20 05:58:13;;;;;;;2.07;1.20;;;21.80;64.60;;;;;;4997055;28;20535;-50
2023/09/20 06:00:42;;;;;;;2.37;1.30;;;21.80;64.70;;;;;;5009971;28;20472;-49
2023/09/20 06:03:11;;;;;;;1.10;0.77;;;21.80;64.80;;;;;;5002979;28;20468;-49
2023/09/20 06:05:40;;;;;;;2.97;1.03;;;21.80;64.70;;;;;;5005282;28;20444;-50
2023/09/20 06:08:11;;;;;;;2.50;1.20;;;21.70;64.80;;;;;;5006379;28;20540;-49
2023/09/20 06:10:39;;;;;;;1.80;1.13;;;21.70;64.60;;;;;;5003159;28;20449;-50
2023/09/20 06:13:09;;;;;;;1.50;1.20;;;21.70;64.70;;;;;;5005944;28;20480;-50
2023/09/20 06:15:39;;;;;;;2.30;1.43;;;21.70;64.80;;;;;;5001903;28;20541;-50
2023/09/20 06:18:08;;;;;;;2.30;1.33;;;21.70;66.00;;;;;;5009843;28;20547;-49
2023/09/20 06:20:39;;;;;;;1.43;1.10;;;21.70;64.70;;;;;;5000522;28;20454;-49
2023/09/20 06:23:07;;;;;;;1.83;1.40;;;21.70;64.70;;;;;;5007141;28;20477;-50
2023/09/20 06:25:35;;;;;;;1.50;1.23;;;21.70;64.80;;;;;;5004504;28;20803;-49
2023/09/20 06:28:09;;;;;;;1.40;1.13;;;21.70;64.70;;;;;;5007256;28;20492;-50
2023/09/20 06:30:39;;;;;;;2.40;1.40;;;21.70;64.90;;;;;;5009859;28;20433;-49
2023/09/20 06:33:08;;;;;;;2.00;1.50;;;21.70;64.70;;;;;;4999844;28;20478;-50
2023/09/20 06:35:40;;;;;;;2.07;1.03;;;21.70;64.80;;;;;;4988986;28;20536;-50
2023/09/20 06:38:09;;;;;;;1.40;1.03;;;21.70;64.90;;;;;;5002606;28;20507;-49
2023/09/20 06:40:39;;;;;;;1.90;1.30;;;21.70;64.90;;;;;;5004539;28;20424;-50
2023/09/20 06:43:08;;;;;;;2.57;1.17;;;21.70;64.90;;;;;;4998933;28;21057;-50
2023/09/20 06:45:40;;;;;;;1.60;1.50;;;21.60;64.80;;;;;;5007172;28;20437;-50
2023/09/20 06:48:08;;;;;;;1.30;1.07;;;21.70;64.90;;;;;;5002702;28;20473;-50
2023/09/20 06:50:37;;;;;;;2.73;1.30;;;21.70;65.00;;;;;;5000988;28;20449;-50
2023/09/20 06:53:05;;;;;;;1.60;1.20;;;21.60;64.90;;;;;;5000177;28;21149;-49
2023/09/20 06:55:34;;;;;;;1.80;1.17;;;21.70;64.90;;;;;;5010017;28;20523;-50
2023/09/20 06:58:03;;;;;;;1.60;1.20;;;21.60;64.80;;;;;;5007192;28;21010;-49
2023/09/20 07:00:50;;;;;;;1.67;1.13;;;21.60;64.70;;;;;;5009306;28;20845;-49
2023/09/20 07:03:19;;;;;;;1.47;1.23;;;21.60;64.80;;;;;;5002953;28;20515;-49
2023/09/20 07:05:48;;;;;;;2.27;1.63;;;21.60;64.80;;;;;;5006056;28;20487;-49
2023/09/20 07:08:17;;;;;;;1.50;1.20;;;21.60;65.30;;;;;;4998464;28;20477;-49
2023/09/20 07:10:45;;;;;;;1.70;1.10;;;21.60;65.20;;;;;;5007222;28;20953;-50
2023/09/20 07:13:16;;;;;;;1.77;1.00;;;21.60;65.20;;;;;;4994022;28;20494;-50
2023/09/20 07:15:44;;;;;;;1.53;1.03;;;21.60;65.30;;;;;;4989695;28;20441;-50
2023/09/20 07:18:14;;;;;;;2.50;1.17;;;21.60;65.20;;;;;;4984791;28;20470;-49
2023/09/20 07:20:43;;;;;;;1.70;1.10;;;21.60;65.40;;;;;;4992134;28;20445;-49
2023/09/20 07:23:15;;;;;;;1.53;1.43;;;21.60;65.40;;;;;;4993639;28;21001;-49
2023/09/20 07:25:45;;;;;;;1.33;1.00;;;21.60;65.20;;;;;;4996469;28;20437;-49
2023/09/20 07:28:13;;;;;;;1.80;1.03;;;21.60;65.30;;;;;;5003777;28;20469;-49
2023/09/20 07:30:44;;;;;;;2.10;1.20;;;21.60;65.40;;;;;;5014107;28;20495;-49
2023/09/20 07:33:19;;;;;;;2.27;1.27;;;21.60;65.40;;;;;;5013365;28;20499;-49
2023/09/20 07:35:48;;;;;;;2.20;1.40;;;21.60;65.40;;;;;;5011855;28;20987;-49
2023/09/20 07:38:25;;;;;;;1.80;1.03;;;21.60;65.40;;;;;;5016861;28;20865;-49
2023/09/20 07:41:02;;;;;;;2.60;1.30;;;21.60;65.40;;;;;;5013044;28;20464;-49
2023/09/20 07:43:30;;;;;;;2.33;1.40;;;21.60;65.40;;;;;;5015956;28;20481;-49
2023/09/20 07:46:06;;;;;;;1.20;1.00;;;21.60;65.40;;;;;;5017850;28;20487;-50
2023/09/20 07:48:44;;;;;;;3.87;1.50;;;21.60;65.40;;;;;;5011153;28;20469;-49
2023/09/20 07:51:14;;;;;;;2.20;1.73;;;21.60;65.40;;;;;;5003043;28;20448;-51
2023/09/20 07:53:45;;;;;;;2.73;1.10;;;21.60;65.40;;;;;;5014709;28;20469;-50
2023/09/20 07:56:14;;;;;;;1.50;1.23;;;21.50;65.30;;;;;;5014703;28;20463;-49
2023/09/20 07:58:44;;;;;;;2.23;1.60;;;21.50;65.30;;;;;;5008550;28;20505;-49
2023/09/20 08:01:21;;;;;;;2.80;1.50;;;21.50;65.30;;;;;;5013916;28;20436;-48
2023/09/20 08:03:53;;;;;;;1.83;1.10;;;21.50;65.30;;;;;;5016171;28;20480;-49
2023/09/20 08:06:26;;;;;;;2.93;1.40;;;21.50;65.30;;;;;;5010803;28;20445;-50
2023/09/20 08:08:56;;;;;;;2.93;1.20;;;21.50;65.30;;;;;;5017409;28;20465;-49
2023/09/20 08:11:24;;;;;;;1.77;1.23;;;21.60;65.40;;;;;;5019369;28;20441;-49
2023/09/20 08:13:54;;;;;;;1.77;1.20;;;21.60;65.40;;;;;;4998099;28;20569;-49
2023/09/20 08:16:24;;;;;;;1.40;1.20;;;21.60;65.40;;;;;;4996629;28;20449;-49
2023/09/20 08:19:21;;;;;;;1.80;1.20;;;21.60;65.40;;;;;;4991338;28;20935;-49
2023/09/20 08:21:50;;;;;;;1.90;1.10;;;21.60;65.40;;;;;;4997454;28;20430;-49
2023/09/20 09:00:24;;;;;;;1.80;1.20;;;21.70;65.50;;;;;;4993200;28;20450;-49
2023/09/20 09:02:57;;;;;;;1.80;1.00;;;21.70;65.50;;;;;;4990936;28;21020;-49
2023/09/20 09:05:27;;;;;;;1.70;1.30;;;21.70;65.50;;;;;;4980937;28;20457;-49
2023/09/20 09:08:00;;;;;;;1.83;1.30;;;21.70;65.50;;;;;;4988760;28;20701;-49
2023/09/20 09:10:29;;;;;;;1.60;1.43;;;21.70;65.30;;;;;;4986202;28;20458;-49
2023/09/20 09:12:57;;;;;;;2.30;1.30;;;21.70;65.30;;;;;;4986730;28;20479;-49
2023/09/20 09:15:27;;;;;;;1.77;1.30;;;21.70;65.50;;;;;;4991977;28;20434;-49
2023/09/20 09:17:56;;;;;;;1.57;1.20;;;21.70;65.50;;;;;;4987024;28;20556;-49
2023/09/20 09:20:26;;;;;;;2.57;1.23;;;21.70;65.50;;;;;;4987692;28;20453;-49
2023/09/20 09:22:55;;;;;;;2.20;1.47;;;21.70;65.20;;;;;;4993589;28;20572;-49
2023/09/20 09:25:30;;;;;;;1.90;1.33;;;21.70;65.20;;;;;;5003561;28;20511;-49
2023/09/20 09:27:59;;;;;;;1.30;1.10;;;21.70;65.50;;;;;;4986347;28;20830;-49
2023/09/20 09:30:27;;;;;;;3.13;1.17;;;21.70;65.30;;;;;;4994699;28;20442;-49
2023/09/20 09:35:50;;;;;;;2.20;1.03;;;21.60;65.40;;;;;;5050015;22;20492;-50
2023/09/20 09:38:23;;;;;;;1.30;1.20;;;21.70;65.50;;;;;;5015782;23;20568;-50
2023/09/20 09:40:55;;;;;;;1.33;1.20;;;21.70;65.50;;;;;;4999422;28;20811;-50
2023/09/20 09:43:25;;;;;;;1.70;1.03;;;21.70;65.20;;;;;;5001392;28;20480;-50
2023/09/20 09:45:55;;;;;;;1.20;0.80;;;21.70;65.50;;;;;;5011932;28;20441;-51
2023/09/20 09:48:27;;;;;;;1.93;0.93;;;21.70;65.60;;;;;;5004345;28;20482;-49
2023/09/20 09:50:59;;;;;;;1.70;1.00;;;21.60;65.40;;;;;;4991948;28;21041;-50
2023/09/20 09:53:28;;;;;;;1.80;1.20;;;21.70;65.50;;;;;;5013981;28;20468;-50
2023/09/20 09:55:59;;;;;;;1.40;1.10;;;21.60;65.40;;;;;;5018196;28;20456;-49
2023/09/20 09:58:28;;;;;;;1.13;1.00;;;21.60;65.40;;;;;;5005729;28;20476;-50
2023/09/20 10:00:57;;;;;;;1.43;1.10;;;21.60;65.40;;;;;;4982241;28;20540;-50
2023/09/20 10:03:32;;;;;;;2.37;1.10;;;21.60;65.40;;;;;;4978263;28;20461;-50
2023/09/20 10:06:10;;;;;;;2.03;1.37;;;21.60;65.40;;;;;;4991323;28;20440;-50
2023/09/20 10:08:39;;;;;;;0.90;0.80;;;21.60;65.40;;;;;;5010912;28;20989;-50
2023/09/20 10:11:10;;;;;;;1.13;0.93;;;21.70;65.50;;;;;;5018770;28;20453;-50
2023/09/20 10:13:40;;;;;;;1.40;1.00;;;21.70;65.50;;;;;;5012364;28;20473;-49
2023/09/20 10:16:10;;;;;;;1.80;1.60;;;21.70;65.60;;;;;;5013831;28;20443;-49
2023/09/20 10:18:56;;;;;;;1.53;1.30;;;21.70;65.30;;;;;;5015248;28;20464;-49
2023/09/20 10:21:30;;;;;;;1.87;1.03;;;21.70;65.50;;;;;;5009160;28;20463;-50
2023/09/20 10:24:04;;;;;;;1.80;1.70;;;21.70;65.50;;;;;;5009410;28;20461;-49
2023/09/20 10:26:38;;;;;;;1.53;1.30;;;21.70;65.50;;;;;;5010334;28;20424;-49
2023/09/20 10:29:23;;;;;;;1.97;1.10;;;21.60;65.40;;;;;;5011114;28;20553;-49
2023/09/20 10:31:55;;;;;;;1.37;0.80;;;21.60;65.40;;;;;;5016523;28;20528;-50
2023/09/20 10:34:25;;;;;;;1.40;1.30;;;21.60;65.40;;;;;;5005972;28;20502;-50
2023/09/20 10:36:55;;;;;;;1.50;1.20;;;21.60;65.40;;;;;;5009870;28;20507;-50
2023/09/20 10:39:24;;;;;;;1.47;1.37;;;21.60;65.40;;;;;;5008849;28;20531;-50
2023/09/20 10:41:55;;;;;;;1.50;1.20;;;21.60;65.40;;;;;;5010022;28;20483;-49
2023/09/20 10:44:32;;;;;;;1.60;1.13;;;21.60;65.40;;;;;;5008025;28;20457;-50
2023/09/20 10:47:09;;;;;;;1.67;0.87;;;21.60;65.40;;;;;;5006831;28;21096;-49
2023/09/20 10:49:49;;;;;;;1.50;1.10;;;21.60;65.40;;;;;;5007785;28;21576;-52
2023/09/20 10:52:56;;;;;;;1.97;1.30;;;21.60;65.40;;;;;;5006878;28;20465;-49
2023/09/20 10:55:42;;;;;;;2.00;1.20;;;21.60;65.40;;;;;;5006392;28;20510;-49
2023/09/20 10:58:14;;;;;;;1.00;0.70;;;21.60;65.40;;;;;;5007973;28;20894;-49
2023/09/20 11:00:42;;;;;;;1.53;1.07;;;21.60;65.40;;;;;;5007558;28;20571;-49
2023/09/20 11:03:11;;;;;;;1.77;0.90;;;21.60;65.40;;;;;;4991726;28;20472;-49
2023/09/20 11:05:40;;;;;;;1.60;1.20;;;21.60;65.40;;;;;;5006870;28;20549;-50
2023/09/20 11:08:13;;;;;;;1.33;1.10;;;21.60;65.40;;;;;;5008432;28;20574;-49
2023/09/20 11:10:44;;;;;;;1.67;1.30;;;21.60;65.40;;;;;;5009402;28;20433;-50
2023/09/20 11:13:15;;;;;;;1.20;0.80;;;21.60;65.40;;;;;;5009129;28;21065;-50
2023/09/20 11:15:48;;;;;;;1.57;1.03;;;21.60;65.40;;;;;;5007778;28;20480;-50
2023/09/20 11:18:19;;;;;;;1.97;1.03;;;21.70;65.20;;;;;;4991689;28;20476;-50
2023/09/20 11:20:48;;;;;;;2.30;1.00;;;21.70;65.30;;;;;;5006761;28;20448;-51
2023/09/20 11:23:17;;;;;;;1.43;1.10;;;21.60;65.40;;;;;;5003985;28;20461;-49
2023/09/20 11:25:46;;;;;;;1.80;1.20;;;21.60;65.40;;;;;;5010335;28;20445;-51
2023/09/20 11:28:16;;;;;;;1.80;0.80;;;21.60;65.40;;;;;;5006788;28;20481;-50
2023/09/20 11:30:44;;;;;;;1.47;1.10;;;21.60;65.40;;;;;;5009039;28;20527;-50
2023/09/20 11:33:27;;;;;;;2.50;1.40;;;21.60;65.40;;;;;;5008852;28;20523;-49
2023/09/20 11:35:55;;;;;;;1.47;1.07;;;21.60;64.90;;;;;;5004156;28;20473;-50
2023/09/20 11:38:24;;;;;;;1.33;1.00;;;21.60;65.40;;;;;;5012486;28;20567;-50
2023/09/20 11:40:52;;;;;;;2.53;1.20;;;21.60;65.50;;;;;;5011588;28;20534;-50
2023/09/20 11:43:21;;;;;;;1.70;1.20;;;21.60;65.20;;;;;;5011175;28;20457;-50
2023/09/20 11:45:53;;;;;;;2.73;1.60;;;21.60;64.70;;;;;;5007167;28;20464;-49
2023/09/20 11:48:28;;;;;;;2.90;1.60;;;21.70;64.70;;;;;;5007491;28;20476;-50
2023/09/20 11:50:56;;;;;;;3.70;0.93;;;21.70;65.00;;;;;;5002446;28;20946;-50
2023/09/20 11:53:25;;;;;;;1.33;1.20;;;21.70;65.20;;;;;;4992381;28;20457;-49
2023/09/20 11:55:55;;;;;;;1.53;1.43;;;21.70;65.20;;;;;;5009919;28;20499;-50
2023/09/20 11:58:24;;;;;;;1.37;1.27;;;21.70;65.10;;;;;;5007277;28;20472;-50
2023/09/20 12:00:55;;;;;;;2.13;1.40;;;21.60;64.90;;;;;;5007831;28;20456;-50
2023/09/20 12:03:23;;;;;;;1.70;1.00;;;21.60;65.20;;;;;;5011869;28;20473;-50
2023/09/20 12:05:53;;;;;;;2.50;1.50;;;21.70;64.70;;;;;;5003026;28;20453;-50
2023/09/20 12:08:22;;;;;;;1.57;1.00;;;21.70;64.80;;;;;;5010300;28;20480;-50
2023/09/20 12:10:50;;;;;;;1.37;1.07;;;21.70;64.90;;;;;;5009875;28;20429;-50
2023/09/20 12:13:19;;;;;;;1.47;1.37;;;21.70;65.10;;;;;;5003527;28;20480;-50
2023/09/20 12:15:48;;;;;;;1.43;1.00;;;21.70;65.40;;;;;;5004974;28;20511;-50
2023/09/20 12:18:16;;;;;;;1.47;1.20;;;21.70;65.30;;;;;;5011317;28;20855;-50
2023/09/20 12:20:45;;;;;;;1.40;1.20;;;21.70;65.30;;;;;;5005982;28;20477;-51
2023/09/20 12:23:14;;;;;;;2.03;1.43;;;21.70;65.50;;;;;;5007303;28;21009;-50
2023/09/20 12:25:42;;;;;;;2.60;1.50;;;21.70;65.50;;;;;;5007980;28;20804;-50
2023/09/20 12:28:10;;;;;;;2.43;1.60;;;21.70;64.90;;;;;;5003868;28;21144;-50
2023/09/20 12:30:39;;;;;;;1.60;0.93;;;21.70;65.50;;;;;;5008742;28;20433;-50
2023/09/20 12:33:09;;;;;;;1.20;0.93;;;21.70;65.10;;;;;;5007889;28;20465;-49
2023/09/20 12:35:40;;;;;;;1.60;1.23;;;21.70;65.40;;;;;;5005757;28;20964;-49
2023/09/20 12:38:09;;;;;;;1.47;1.30;;;21.70;65.50;;;;;;5006235;28;20475;-51
2023/09/20 12:40:37;;;;;;;1.30;1.03;;;21.70;65.50;;;;;;4989998;28;20803;-49
2023/09/20 12:43:06;;;;;;;2.07;1.47;;;21.70;64.70;;;;;;4981341;28;20996;-50
2023/09/20 12:45:34;;;;;;;4.83;2.00;;;21.60;64.70;;;;;;5008302;28;20437;-50
2023/09/20 12:48:03;;;;;;;3.00;1.57;;;21.70;61.60;;;;;;4998708;28;20483;-50
2023/09/20 12:50:36;;;;;;;5.57;2.27;;;21.80;61.30;;;;;;4997230;28;20453;-52
2023/09/20 12:53:06;;;;;;;2.67;1.70;;;21.80;61.20;;;;;;4988369;28;20495;-50
2023/09/20 12:55:38;;;;;;;3.57;2.07;;;21.90;61.30;;;;;;5007042;28;20886;-50
2023/09/20 12:58:07;;;;;;;3.60;2.10;;;21.90;61.20;;;;;;5008538;28;20472;-49
2023/09/20 13:00:36;;;;;;;3.60;1.63;;;21.90;61.30;;;;;;4999859;28;20445;-52
2023/09/20 13:03:15;;;;;;;2.80;1.70;;;21.90;61.30;;;;;;5007837;28;20841;-49
2023/09/20 13:05:46;;;;;;;2.83;1.93;;;22.00;61.30;;;;;;4987481;28;20448;-50
2023/09/20 13:08:16;;;;;;;3.13;1.77;;;22.00;61.40;;;;;;5008048;28;20468;-51
2023/09/20 13:10:47;;;;;;;2.73;1.70;;;22.00;61.50;;;;;;5006907;28;20527;-50
2023/09/20 13:13:15;;;;;;;2.43;1.80;;;22.00;61.60;;;;;;5001617;28;20535;-53
2023/09/20 13:15:44;;;;;;;4.43;2.10;;;22.00;61.50;;;;;;4996221;28;20463;-53
2023/09/20 13:18:12;;;;;;;1.73;1.60;;;22.10;61.20;;;;;;4991793;28;20480;-53
2023/09/20 13:20:42;;;;;;;5.17;2.20;;;22.10;61.40;;;;;;5008189;28;20448;-50
2023/09/20 13:23:12;;;;;;;1.97;1.77;;;22.10;61.30;;;;;;5012527;28;20480;-51
2023/09/20 13:25:42;;;;;;;4.30;1.70;;;22.10;61.30;;;;;;5014577;28;20435;-53
2023/09/20 13:28:12;;;;;;;3.63;2.00;;;22.10;61.30;;;;;;5014431;28;20472;-51
2023/09/20 13:30:41;;;;;;;2.13;1.80;;;22.10;61.40;;;;;;5011788;28;20452;-50
2023/09/20 13:33:12;;;;;;;2.60;1.80;;;22.10;61.50;;;;;;5015122;28;20839;-52
2023/09/20 13:35:41;;;;;;;3.70;1.93;;;22.10;61.50;;;;;;5012156;28;20499;-53
2023/09/20 13:38:11;;;;;;;3.30;1.90;;;22.10;61.50;;;;;;5011266;28;20515;-52
2023/09/20 13:40:42;;;;;;;3.27;1.70;;;22.10;61.60;;;;;;5010445;28;20455;-53
2023/09/20 13:43:13;;;;;;;2.50;2.03;;;22.10;61.70;;;;;;5007302;28;20472;-51